createdAt,value
2022-09-16T00:01:24.978Z,16.50
2022-09-16T00:03:27.886Z,16.60
2022-09-16T00:05:31.251Z,16.70
2022-09-16T00:07:35.329Z,16.90
2022-09-16T00:09:38.492Z,16.80
2022-09-16T00:11:41.200Z,16.70
2022-09-16T00:13:44.065Z,16.70
2022-09-16T00:15:48.966Z,16.70
2022-09-16T00:17:51.696Z,16.70
2022-09-16T00:19:54.393Z,16.70
2022-09-16T00:21:57.182Z,16.70
2022-09-16T00:24:01.302Z,16.60
2022-09-16T00:26:04.797Z,16.60
2022-09-16T00:28:07.509Z,16.50
2022-09-16T00:30:11.001Z,16.40
2022-09-16T00:32:13.835Z,16.30
2022-09-16T00:34:16.559Z,16.20
2022-09-16T00:36:20.720Z,16.20
2022-09-16T00:38:23.544Z,16.30
2022-09-16T00:40:28.966Z,16.20
2022-09-16T00:42:31.718Z,16.20
2022-09-16T00:44:55.837Z,16.20
2022-09-16T00:46:58.826Z,16.20
2022-09-16T00:49:05.266Z,16.20
2022-09-16T00:51:11.536Z,16.00
2022-09-16T00:53:18.750Z,16.00
2022-09-16T00:55:24.719Z,15.90
2022-09-16T00:57:28.970Z,15.90
2022-09-16T00:59:34.827Z,16.00
2022-09-16T01:01:38.908Z,16.00
2022-09-16T01:03:50.499Z,15.90
2022-09-16T01:05:53.584Z,15.90
2022-09-16T01:07:56.345Z,15.80
2022-09-16T01:09:59.670Z,15.80
2022-09-16T01:12:02.737Z,15.90
2022-09-16T01:14:25.114Z,15.70
2022-09-16T01:16:31.705Z,15.70
2022-09-16T01:18:46.197Z,15.70
2022-09-16T01:21:10.396Z,15.60
2022-09-16T01:23:42.421Z,15.50
2022-09-16T01:25:59.517Z,15.60
2022-09-16T01:28:25.934Z,15.50
2022-09-16T01:30:53.866Z,15.60
2022-09-16T01:33:05.706Z,15.60
2022-09-16T01:35:13.858Z,15.50
2022-09-16T01:37:24.567Z,15.60
2022-09-16T01:39:32.448Z,15.60
2022-09-16T01:41:47.644Z,15.60
2022-09-16T01:43:59.967Z,15.70
2022-09-16T01:46:22.578Z,15.70
2022-09-16T01:48:32.467Z,15.70
2022-09-16T01:50:40.904Z,15.70
2022-09-16T01:52:53.859Z,15.70
2022-09-16T01:55:01.540Z,15.70
2022-09-16T01:57:08.745Z,15.80
2022-09-16T01:59:16.229Z,15.70
2022-09-16T02:01:26.284Z,15.70
2022-09-16T02:03:35.295Z,15.70
2022-09-16T02:05:45.758Z,15.60
2022-09-16T02:07:52.780Z,15.50
2022-09-16T02:09:59.474Z,15.50
2022-09-16T02:12:07.971Z,15.50
2022-09-16T02:14:15.501Z,15.40
2022-09-16T02:16:23.959Z,15.40
2022-09-16T02:18:31.358Z,15.40
2022-09-16T02:20:38.988Z,15.40
2022-09-16T02:22:45.355Z,15.40
2022-09-16T02:24:49.231Z,15.40
2022-09-16T02:26:57.041Z,15.50
2022-09-16T02:29:02.737Z,15.50
2022-09-16T02:31:08.824Z,15.50
2022-09-16T02:33:15.628Z,15.40
2022-09-16T02:35:21.478Z,15.30
2022-09-16T02:37:30.484Z,15.30
2022-09-16T02:39:38.522Z,15.40
2022-09-16T02:41:42.209Z,15.30
2022-09-16T02:43:46.514Z,15.30
2022-09-16T02:45:55.183Z,15.30
2022-09-16T02:48:05.462Z,15.40
2022-09-16T02:50:15.191Z,15.40
2022-09-16T02:52:24.285Z,15.40
2022-09-16T02:54:35.743Z,15.50
2022-09-16T02:56:41.498Z,15.50
2022-09-16T02:58:44.235Z,15.60
2022-09-16T03:00:50.220Z,15.70
2022-09-16T03:02:55.129Z,15.70
2022-09-16T03:04:57.847Z,15.60
2022-09-16T03:07:02.420Z,15.60
2022-09-16T03:09:08.279Z,15.60
2022-09-16T03:11:35.033Z,15.70
2022-09-16T03:13:45.149Z,15.80
2022-09-16T03:15:59.512Z,15.80
2022-09-16T03:18:18.557Z,15.60
2022-09-16T03:20:27.885Z,15.60
2022-09-16T03:22:44.372Z,15.60
2022-09-16T03:24:53.432Z,15.60
2022-09-16T03:27:02.190Z,15.70
2022-09-16T03:29:14.279Z,15.60
2022-09-16T03:31:24.664Z,15.60
2022-09-16T03:33:34.446Z,15.60
2022-09-16T03:35:43.865Z,15.50
2022-09-16T03:37:48.514Z,15.50
2022-09-16T03:39:53.685Z,15.50
2022-09-16T03:42:00.919Z,15.50
2022-09-16T03:44:04.478Z,15.40
2022-09-16T03:46:11.471Z,15.40
2022-09-16T03:48:15.050Z,15.40
2022-09-16T03:50:18.241Z,15.50
2022-09-16T03:52:20.923Z,15.50
2022-09-16T03:54:25.413Z,15.50
2022-09-16T03:56:28.102Z,15.60
2022-09-16T03:58:30.804Z,15.60
2022-09-16T04:00:33.687Z,15.70
2022-09-16T04:02:36.662Z,15.60
2022-09-16T04:04:39.384Z,15.50
2022-09-16T04:06:42.322Z,15.50
2022-09-16T04:08:45.148Z,15.60
2022-09-16T04:10:56.135Z,15.60
2022-09-16T04:12:59.537Z,15.60
2022-09-16T04:15:02.332Z,15.60
2022-09-16T04:17:05.235Z,15.60
2022-09-16T04:19:08.042Z,15.70
2022-09-16T04:21:11.086Z,15.60
2022-09-16T04:23:14.131Z,15.50
2022-09-16T04:25:16.910Z,15.50
2022-09-16T04:27:20.911Z,15.50
2022-09-16T04:29:23.602Z,15.50
2022-09-16T04:31:26.380Z,15.50
2022-09-16T04:33:30.098Z,15.50
2022-09-16T04:35:32.798Z,15.50
2022-09-16T04:37:35.578Z,15.40
2022-09-16T04:39:38.703Z,15.30
2022-09-16T04:41:41.391Z,15.30
2022-09-16T04:43:45.414Z,15.30
2022-09-16T04:45:48.161Z,15.40
2022-09-16T04:47:57.559Z,15.50
2022-09-16T04:50:00.257Z,15.50
2022-09-16T04:52:03.706Z,15.50
2022-09-16T04:54:06.516Z,15.50
2022-09-16T04:56:14.710Z,15.30
2022-09-16T04:58:17.442Z,15.20
2022-09-16T05:00:21.808Z,15.30
2022-09-16T05:02:24.582Z,15.30
2022-09-16T05:04:27.272Z,15.30
2022-09-16T05:06:32.403Z,15.30
2022-09-16T05:08:35.382Z,15.20
2022-09-16T05:10:38.138Z,15.30
2022-09-16T05:12:40.821Z,15.40
2022-09-16T05:14:43.638Z,15.30
2022-09-16T05:16:47.858Z,15.30
2022-09-16T05:18:52.428Z,15.30
2022-09-16T05:20:58.502Z,15.30
2022-09-16T05:23:01.175Z,15.30
2022-09-16T05:25:04.209Z,15.30
2022-09-16T05:27:06.999Z,15.20
2022-09-16T05:29:12.475Z,15.30
2022-09-16T05:31:17.288Z,15.20
2022-09-16T05:33:21.300Z,15.20
2022-09-16T05:35:24.017Z,15.20
2022-09-16T05:37:26.739Z,15.10
2022-09-16T05:39:29.796Z,15.30
2022-09-16T05:41:33.048Z,15.50
2022-09-16T05:43:37.853Z,15.60
2022-09-16T05:45:40.580Z,15.70
2022-09-16T05:47:43.263Z,15.90
2022-09-16T05:49:47.259Z,15.90
2022-09-16T05:51:50.745Z,15.80
2022-09-16T05:53:54.851Z,15.80
2022-09-16T05:55:59.116Z,15.70
2022-09-16T05:58:01.801Z,15.50
2022-09-16T06:00:06.099Z,15.40
2022-09-16T06:02:12.213Z,15.40
2022-09-16T06:04:16.629Z,15.40
2022-09-16T06:06:24.147Z,15.30
2022-09-16T06:08:27.017Z,15.30
2022-09-16T06:10:29.754Z,15.30
2022-09-16T06:12:32.428Z,15.30
2022-09-16T06:14:35.142Z,15.30
2022-09-16T06:16:38.707Z,15.40
2022-09-16T06:18:41.805Z,15.40
2022-09-16T06:20:44.509Z,15.50
2022-09-16T06:22:48.536Z,15.40
2022-09-16T06:24:52.648Z,15.50
2022-09-16T06:26:55.382Z,15.50
2022-09-16T06:28:58.091Z,15.60
2022-09-16T06:31:06.510Z,15.60
2022-09-16T06:33:11.236Z,15.50
2022-09-16T06:35:13.929Z,15.50
2022-09-16T06:37:16.668Z,15.50
2022-09-16T06:39:22.475Z,15.50
2022-09-16T06:41:26.184Z,15.50
2022-09-16T06:43:29.420Z,15.50
2022-09-16T06:45:32.118Z,15.50
2022-09-16T06:47:35.026Z,15.50
2022-09-16T06:49:37.847Z,15.60
2022-09-16T06:51:40.983Z,15.60
2022-09-16T06:53:44.914Z,15.60
2022-09-16T06:55:49.259Z,15.60
2022-09-16T06:57:52.040Z,15.60
2022-09-16T06:59:54.857Z,15.60
2022-09-16T07:01:57.566Z,15.60
2022-09-16T07:04:05.323Z,15.60
2022-09-16T07:06:09.373Z,15.60
2022-09-16T07:08:12.059Z,15.60
2022-09-16T07:10:14.908Z,15.60
2022-09-16T07:12:19.832Z,15.60
2022-09-16T07:14:22.810Z,15.70
2022-09-16T07:16:26.993Z,15.70
2022-09-16T07:18:30.310Z,15.70
2022-09-16T07:20:33.010Z,15.80
2022-09-16T07:22:35.992Z,15.80
2022-09-16T07:24:38.678Z,15.80
2022-09-16T07:26:42.845Z,15.80
2022-09-16T07:28:48.163Z,15.70
2022-09-16T07:30:51.132Z,15.80
2022-09-16T07:32:53.862Z,15.90
2022-09-16T07:34:58.016Z,15.90
2022-09-16T07:37:00.702Z,16.00
2022-09-16T07:39:03.522Z,15.90
2022-09-16T07:41:07.456Z,15.90
2022-09-16T07:43:10.235Z,15.90
2022-09-16T07:45:14.309Z,16.00
2022-09-16T07:47:21.946Z,16.00
2022-09-16T07:49:24.978Z,16.10
2022-09-16T07:51:29.337Z,16.30
2022-09-16T07:53:33.039Z,16.50
2022-09-16T07:55:36.417Z,16.70
2022-09-16T07:57:39.122Z,16.90
2022-09-16T07:59:41.803Z,17.00
2022-09-16T08:01:45.968Z,16.90
2022-09-16T08:03:49.307Z,16.80
2022-09-16T08:05:52.240Z,16.60
2022-09-16T08:07:54.942Z,16.50
2022-09-16T08:09:57.674Z,16.50
2022-09-16T08:12:03.984Z,16.50
2022-09-16T08:14:06.864Z,16.50
2022-09-16T08:16:12.103Z,16.60
2022-09-16T08:18:16.194Z,16.60
2022-09-16T08:20:18.919Z,16.60
2022-09-16T08:22:23.435Z,16.60
2022-09-16T08:24:26.550Z,16.50
2022-09-16T08:26:29.291Z,16.50
2022-09-16T08:28:40.105Z,16.60
2022-09-16T08:30:55.516Z,16.60
2022-09-16T08:32:58.390Z,16.70
2022-09-16T08:35:02.509Z,16.70
2022-09-16T08:37:05.232Z,16.80
2022-09-16T08:39:07.935Z,16.80
2022-09-16T08:41:41.890Z,16.80
2022-09-16T08:43:50.169Z,16.60
2022-09-16T08:45:59.697Z,16.60
2022-09-16T08:48:15.564Z,16.70
2022-09-16T08:50:24.472Z,16.70
2022-09-16T08:52:31.984Z,16.80
2022-09-16T08:54:41.365Z,16.90
2022-09-16T08:56:47.020Z,17.00
2022-09-16T08:58:54.169Z,17.10
2022-09-16T09:01:01.215Z,17.10
2022-09-16T09:03:15.530Z,17.00
2022-09-16T09:05:26.356Z,16.90
2022-09-16T09:07:37.990Z,16.90
2022-09-16T09:09:51.672Z,17.10
2022-09-16T09:12:04.142Z,17.10
2022-09-16T09:14:20.265Z,17.20
2022-09-16T09:16:31.662Z,17.40
2022-09-16T09:18:45.734Z,17.50
2022-09-16T09:20:57.560Z,17.70
2022-09-16T09:23:14.792Z,17.90
2022-09-16T09:25:31.768Z,17.90
2022-09-16T09:27:46.974Z,17.90
2022-09-16T09:30:05.911Z,17.90
2022-09-16T09:32:22.029Z,18.00
2022-09-16T09:34:35.921Z,17.90
2022-09-16T09:36:54.652Z,17.90
2022-09-16T09:39:12.170Z,17.80
2022-09-16T09:41:20.330Z,17.60
2022-09-16T09:43:30.561Z,17.50
2022-09-16T09:45:36.911Z,17.40
2022-09-16T09:47:43.975Z,17.20
2022-09-16T09:49:50.481Z,17.10
2022-09-16T09:51:58.042Z,17.00
2022-09-16T09:54:03.751Z,17.00
2022-09-16T09:56:17.403Z,17.00
2022-09-16T09:58:26.446Z,17.10
2022-09-16T10:00:29.635Z,17.10
2022-09-16T10:02:32.412Z,17.20
2022-09-16T10:04:39.810Z,17.30
2022-09-16T10:06:43.993Z,17.40
2022-09-16T10:08:50.928Z,17.60
2022-09-16T10:10:55.421Z,17.80
2022-09-16T10:13:08.683Z,17.90
2022-09-16T10:15:22.799Z,18.10
2022-09-16T10:17:28.036Z,18.40
2022-09-16T10:19:32.571Z,18.40
2022-09-16T10:21:41.820Z,18.50
2022-09-16T10:23:57.519Z,18.60
2022-09-16T10:26:22.293Z,18.60
2022-09-16T10:28:27.492Z,18.60
2022-09-16T10:30:34.124Z,18.80
2022-09-16T10:32:47.530Z,19.00
2022-09-16T10:34:51.648Z,19.10
2022-09-16T10:37:02.515Z,19.20
2022-09-16T10:39:06.784Z,19.30
2022-09-16T10:41:17.549Z,19.30
2022-09-16T10:43:20.366Z,19.20
2022-09-16T10:45:27.569Z,19.40
2022-09-16T10:47:33.302Z,19.30
2022-09-16T10:49:39.815Z,19.30
2022-09-16T10:51:42.925Z,19.60
2022-09-16T10:53:52.825Z,19.70
2022-09-16T10:56:02.256Z,19.60
2022-09-16T10:58:09.944Z,19.60
2022-09-16T11:00:16.810Z,19.40
2022-09-16T11:02:30.537Z,19.20
2022-09-16T11:04:58.635Z,19.00
2022-09-16T11:07:24.275Z,19.10
2022-09-16T11:09:36.613Z,19.00
2022-09-16T11:11:55.950Z,18.90
2022-09-16T11:14:07.782Z,18.70
2022-09-16T11:16:29.043Z,18.40
2022-09-16T11:18:43.676Z,18.30
2022-09-16T11:21:19.736Z,18.20
2022-09-16T11:23:34.473Z,18.10
2022-09-16T11:25:49.847Z,18.00
2022-09-16T11:28:02.756Z,18.00
2022-09-16T11:30:11.910Z,18.10
2022-09-16T11:32:22.902Z,18.30
2022-09-16T11:34:42.254Z,18.60
2022-09-16T11:37:02.344Z,18.70
2022-09-16T11:39:18.191Z,18.70
2022-09-16T11:41:28.996Z,18.60
2022-09-16T11:43:48.418Z,18.70
2022-09-16T11:45:56.747Z,18.90
2022-09-16T11:48:20.750Z,19.10
2022-09-16T11:50:34.331Z,19.30
2022-09-16T11:52:58.689Z,19.50
2022-09-16T11:55:20.779Z,19.70
2022-09-16T11:57:27.072Z,19.80
2022-09-16T11:59:38.004Z,19.90
2022-09-16T12:01:44.463Z,20.20
2022-09-16T12:03:50.261Z,20.20
2022-09-16T12:05:56.872Z,20.10
2022-09-16T12:08:07.835Z,19.90
2022-09-16T12:10:19.044Z,19.50
2022-09-16T12:12:25.027Z,19.20
2022-09-16T12:14:36.389Z,18.90
2022-09-16T12:16:45.923Z,18.80
2022-09-16T12:18:51.363Z,18.70
2022-09-16T12:20:58.594Z,18.60
2022-09-16T12:23:07.675Z,18.50
2022-09-16T12:25:14.968Z,18.50
2022-09-16T12:27:34.062Z,18.60
2022-09-16T12:29:45.206Z,18.50
2022-09-16T12:31:52.786Z,18.50
2022-09-16T12:33:58.762Z,18.60
2022-09-16T12:36:07.292Z,18.50
2022-09-16T12:38:17.086Z,18.50
2022-09-16T12:40:23.612Z,18.20
2022-09-16T12:43:11.461Z,18.20
2022-09-16T12:45:37.958Z,18.30
2022-09-16T12:47:54.955Z,18.40
2022-09-16T12:50:23.081Z,18.40
2022-09-16T12:52:42.007Z,18.50
2022-09-16T12:55:20.668Z,18.50
2022-09-16T12:57:38.916Z,18.60
2022-09-16T13:00:05.665Z,18.70
2022-09-16T13:02:16.550Z,18.80
2022-09-16T13:04:23.325Z,19.00
2022-09-16T13:06:29.371Z,18.90
2022-09-16T13:08:33.573Z,18.80
2022-09-16T13:10:54.937Z,18.80
2022-09-16T13:13:01.439Z,18.70
2022-09-16T13:15:07.095Z,18.70
2022-09-16T13:17:13.272Z,18.80
2022-09-16T13:19:42.193Z,19.00
2022-09-16T13:21:47.062Z,19.20
2022-09-16T13:23:58.947Z,18.90
2022-09-16T13:26:03.485Z,18.90
2022-09-16T13:28:25.276Z,19.00
2022-09-16T13:30:31.758Z,19.10
2022-09-16T13:32:43.366Z,19.40
2022-09-16T13:34:46.050Z,19.60
2022-09-16T13:36:48.899Z,19.70
2022-09-16T13:38:53.567Z,19.80
2022-09-16T13:40:58.874Z,19.80
2022-09-16T13:43:15.509Z,20.00
2022-09-16T13:45:35.850Z,20.00
2022-09-16T13:47:50.076Z,20.00
2022-09-16T13:49:56.298Z,20.20
2022-09-16T13:51:59.006Z,20.20
2022-09-16T13:54:04.592Z,20.20
2022-09-16T13:56:16.514Z,20.10
2022-09-16T13:58:27.240Z,20.00
2022-09-16T14:00:38.003Z,20.00
2022-09-16T14:02:56.493Z,20.00
2022-09-16T14:05:18.725Z,20.10
2022-09-16T14:07:32.710Z,20.00
2022-09-16T14:09:50.440Z,20.00
2022-09-16T14:12:03.817Z,20.00
2022-09-16T14:14:29.816Z,19.80
2022-09-16T14:16:35.936Z,19.70
2022-09-16T14:18:49.147Z,19.60
2022-09-16T14:20:56.228Z,19.60
2022-09-16T14:23:03.886Z,19.60
2022-09-16T14:25:29.727Z,19.60
2022-09-16T14:27:34.740Z,19.60
2022-09-16T14:29:37.464Z,19.70
2022-09-16T14:31:45.149Z,19.50
2022-09-16T14:33:56.514Z,19.40
2022-09-16T14:36:01.250Z,19.40
2022-09-16T14:38:14.175Z,19.50
2022-09-16T14:40:28.146Z,19.40
2022-09-16T14:42:31.941Z,19.40
2022-09-16T14:44:38.128Z,19.50
2022-09-16T14:46:43.403Z,19.60
2022-09-16T14:48:46.432Z,19.70
2022-09-16T14:50:52.040Z,19.80
2022-09-16T14:52:56.572Z,19.80
2022-09-16T14:54:59.464Z,19.90
2022-09-16T14:57:04.698Z,19.90
2022-09-16T14:59:10.783Z,19.80
2022-09-16T15:01:18.566Z,19.70
2022-09-16T15:03:25.401Z,19.60
2022-09-16T15:05:33.804Z,19.40
2022-09-16T15:07:50.889Z,19.10
2022-09-16T15:10:05.601Z,18.80
2022-09-16T15:12:17.946Z,18.70
2022-09-16T15:14:21.364Z,18.60
2022-09-16T15:16:25.839Z,18.50
2022-09-16T15:18:32.236Z,18.50
2022-09-16T15:20:40.966Z,18.40
2022-09-16T15:22:45.047Z,18.40
2022-09-16T15:24:52.783Z,18.20
2022-09-16T15:26:57.495Z,18.10
2022-09-16T15:29:03.174Z,17.80
2022-09-16T15:31:07.665Z,17.80
2022-09-16T15:33:29.819Z,17.80
2022-09-16T15:35:36.116Z,17.90
2022-09-16T15:37:38.943Z,17.90
2022-09-16T15:39:43.004Z,17.80
2022-09-16T15:41:45.682Z,17.70
2022-09-16T15:43:48.951Z,17.60
2022-09-16T15:46:02.885Z,17.70
2022-09-16T15:48:08.820Z,17.60
2022-09-16T15:50:15.670Z,17.60
2022-09-16T15:52:18.765Z,17.70
2022-09-16T15:54:26.015Z,17.60
2022-09-16T15:56:35.380Z,17.60
2022-09-16T15:58:41.869Z,17.50
2022-09-16T16:01:02.594Z,17.40
2022-09-16T16:03:19.038Z,17.40
2022-09-16T16:05:24.068Z,17.50
2022-09-16T16:07:46.326Z,17.50
2022-09-16T16:09:49.092Z,17.50
2022-09-16T16:11:53.368Z,17.50
2022-09-16T16:13:59.864Z,17.60
2022-09-16T16:16:05.126Z,17.60
2022-09-16T16:18:10.570Z,17.60
2022-09-16T16:20:14.834Z,17.70
2022-09-16T16:22:18.456Z,17.70
2022-09-16T16:24:21.176Z,17.60
2022-09-16T16:26:24.755Z,17.60
2022-09-16T16:28:28.907Z,17.60
2022-09-16T16:30:31.763Z,17.60
2022-09-16T16:32:35.015Z,17.70
2022-09-16T16:34:39.598Z,17.60
2022-09-16T16:36:42.252Z,17.60
2022-09-16T16:38:46.387Z,17.60
2022-09-16T16:40:51.706Z,17.70
2022-09-16T16:42:54.419Z,17.70
2022-09-16T16:44:58.425Z,17.70
2022-09-16T16:47:01.903Z,17.70
2022-09-16T16:49:04.911Z,17.70
2022-09-16T16:51:10.846Z,17.60
2022-09-16T16:53:13.576Z,17.70
2022-09-16T16:55:16.452Z,17.80
2022-09-16T16:57:19.207Z,17.80
2022-09-16T16:59:22.765Z,17.80
2022-09-16T17:01:28.265Z,17.80
2022-09-16T17:03:31.177Z,17.70
2022-09-16T17:05:33.854Z,17.70
2022-09-16T17:07:37.018Z,17.60
2022-09-16T17:09:39.996Z,17.60
2022-09-16T17:11:52.309Z,17.50
2022-09-16T17:14:00.411Z,17.30
2022-09-16T17:16:03.482Z,17.10
2022-09-16T17:18:07.704Z,17.10
2022-09-16T17:20:10.692Z,17.00
2022-09-16T17:22:13.414Z,16.90
2022-09-16T17:24:16.681Z,16.80
2022-09-16T17:26:20.421Z,16.80
2022-09-16T17:28:23.104Z,16.70
2022-09-16T17:30:25.776Z,16.70
2022-09-16T17:32:28.480Z,16.70
2022-09-16T17:34:32.633Z,16.60
2022-09-16T17:36:37.370Z,16.60
2022-09-16T17:38:40.389Z,16.70
2022-09-16T17:40:43.057Z,16.60
2022-09-16T17:42:45.892Z,16.60
2022-09-16T17:44:48.628Z,16.60
2022-09-16T17:46:51.600Z,16.50
2022-09-16T17:48:54.393Z,16.60
2022-09-16T17:50:58.639Z,16.70
2022-09-16T17:53:01.374Z,16.50
2022-09-16T17:55:04.205Z,16.60
2022-09-16T17:57:07.007Z,16.60
2022-09-16T17:59:11.191Z,16.50
2022-09-16T18:01:15.536Z,16.60
2022-09-16T18:03:18.352Z,16.60
2022-09-16T18:05:21.188Z,16.50
2022-09-16T18:07:25.352Z,16.50
2022-09-16T18:09:28.109Z,16.50
2022-09-16T18:11:30.954Z,16.50
2022-09-16T18:13:34.347Z,16.50
2022-09-16T18:15:37.040Z,16.40
2022-09-16T18:17:39.769Z,16.40
2022-09-16T18:19:42.472Z,16.30
2022-09-16T18:21:45.247Z,16.30
2022-09-16T18:23:53.286Z,16.20
2022-09-16T18:25:56.389Z,16.30
2022-09-16T18:27:59.122Z,16.20
2022-09-16T18:30:02.244Z,16.20
2022-09-16T18:32:05.129Z,16.20
2022-09-16T18:34:07.931Z,16.20
2022-09-16T18:36:14.244Z,16.20
2022-09-16T18:38:17.845Z,16.20
2022-09-16T18:40:21.999Z,16.10
2022-09-16T18:42:24.795Z,16.20
2022-09-16T18:44:28.123Z,16.10
2022-09-16T18:46:33.087Z,16.10
2022-09-16T18:48:35.887Z,16.10
2022-09-16T18:50:38.603Z,16.10
2022-09-16T18:52:41.384Z,16.30
2022-09-16T18:54:46.831Z,16.30
2022-09-16T18:56:51.022Z,16.30
2022-09-16T18:59:19.750Z,16.30
2022-09-16T19:01:27.252Z,16.30
2022-09-16T19:03:30.574Z,16.40
2022-09-16T19:05:33.450Z,16.30
2022-09-16T19:07:36.357Z,16.20
2022-09-16T19:09:40.629Z,16.10
2022-09-16T19:11:43.779Z,16.00
2022-09-16T19:13:47.860Z,16.00
2022-09-16T19:15:53.745Z,16.00
2022-09-16T19:17:56.612Z,15.90
2022-09-16T19:20:00.321Z,15.90
2022-09-16T19:22:05.751Z,15.80
2022-09-16T19:24:14.166Z,15.90
2022-09-16T19:26:19.521Z,16.00
2022-09-16T19:28:22.237Z,16.00
2022-09-16T19:30:26.617Z,16.00
2022-09-16T19:32:29.434Z,16.00
2022-09-16T19:34:32.257Z,16.10
2022-09-16T19:36:37.112Z,16.10
2022-09-16T19:38:40.270Z,16.10
2022-09-16T19:40:43.913Z,16.10
2022-09-16T19:42:46.668Z,16.00
2022-09-16T19:44:49.407Z,16.00
2022-09-16T19:46:53.717Z,16.00
2022-09-16T19:48:56.707Z,16.00
2022-09-16T19:50:59.549Z,16.00
2022-09-16T19:53:02.518Z,15.90
2022-09-16T19:55:06.060Z,15.90
2022-09-16T19:57:09.640Z,15.80
2022-09-16T19:59:12.392Z,15.80
2022-09-16T20:01:17.965Z,15.70
2022-09-16T20:03:22.083Z,15.70
2022-09-16T20:05:24.851Z,15.60
2022-09-16T20:07:28.001Z,15.60
2022-09-16T20:09:31.199Z,15.60
2022-09-16T20:11:36.216Z,15.60
2022-09-16T20:13:39.765Z,15.50
2022-09-16T20:15:42.534Z,15.50
2022-09-16T20:17:45.630Z,15.50
2022-09-16T20:19:49.673Z,15.50
2022-09-16T20:21:52.625Z,15.60
2022-09-16T20:23:56.473Z,15.70
2022-09-16T20:26:01.430Z,15.70
2022-09-16T20:28:04.361Z,15.70
2022-09-16T20:30:08.149Z,15.70
2022-09-16T20:32:10.993Z,15.70
2022-09-16T20:34:17.189Z,15.70
2022-09-16T20:36:23.405Z,15.70
2022-09-16T20:38:26.234Z,15.60
2022-09-16T20:40:29.022Z,15.60
2022-09-16T20:42:31.823Z,15.60
2022-09-16T20:44:34.634Z,15.60
2022-09-16T20:46:38.823Z,15.70
2022-09-16T20:48:42.414Z,15.60
2022-09-16T20:50:45.159Z,15.70
2022-09-16T20:52:50.571Z,15.70
2022-09-16T20:54:53.317Z,15.70
2022-09-16T20:56:56.344Z,15.80
2022-09-16T20:58:59.897Z,15.60
2022-09-16T21:01:07.214Z,15.60
2022-09-16T21:03:12.396Z,15.60
2022-09-16T21:05:15.425Z,15.50
2022-09-16T21:07:18.204Z,15.50
2022-09-16T21:09:23.217Z,15.40
2022-09-16T21:11:27.592Z,15.40
2022-09-16T21:13:31.217Z,15.50
2022-09-16T21:15:33.980Z,15.40
2022-09-16T21:17:36.784Z,15.30
2022-09-16T21:19:39.479Z,15.30
2022-09-16T21:21:44.739Z,15.20
2022-09-16T21:23:48.838Z,15.10
2022-09-16T21:25:52.988Z,15.10
2022-09-16T21:27:55.923Z,15.00
2022-09-16T21:29:59.338Z,15.00
2022-09-16T21:32:03.375Z,15.00
2022-09-16T21:34:06.802Z,15.10
2022-09-16T21:36:12.326Z,15.10
2022-09-16T21:38:17.300Z,15.10
2022-09-16T21:40:22.791Z,15.10
2022-09-16T21:42:26.861Z,15.10
2022-09-16T21:44:29.565Z,15.20
2022-09-16T21:46:35.044Z,15.20
2022-09-16T21:48:37.998Z,15.20
2022-09-16T21:50:41.602Z,15.20
2022-09-16T21:52:45.438Z,15.20
2022-09-16T21:54:48.422Z,15.10
2022-09-16T21:56:51.620Z,15.10
2022-09-16T21:58:57.904Z,15.10
2022-09-16T22:01:09.367Z,15.00
2022-09-16T22:03:12.287Z,15.00
2022-09-16T22:05:15.201Z,15.00
2022-09-16T22:07:18.042Z,14.90
2022-09-16T22:09:21.343Z,14.80
2022-09-16T22:11:25.714Z,14.70
2022-09-16T22:13:30.148Z,14.80
2022-09-16T22:15:34.230Z,14.80
2022-09-16T22:17:37.034Z,14.80
2022-09-16T22:19:39.893Z,14.70
2022-09-16T22:21:44.503Z,14.70
2022-09-16T22:23:47.313Z,14.70
2022-09-16T22:25:50.087Z,14.70
2022-09-16T22:27:52.818Z,14.70
2022-09-16T22:29:56.099Z,14.70
2022-09-16T22:32:00.207Z,14.70
2022-09-16T22:34:03.818Z,14.50
2022-09-16T22:36:08.294Z,14.50
2022-09-16T22:38:10.992Z,14.60
2022-09-16T22:40:13.777Z,14.60
2022-09-16T22:42:16.569Z,14.50
2022-09-16T22:44:19.244Z,14.50
2022-09-16T22:46:24.207Z,14.60
2022-09-16T22:48:28.308Z,14.60
2022-09-16T22:50:31.030Z,14.60
2022-09-16T22:52:33.968Z,14.60
2022-09-16T22:54:37.051Z,14.50
2022-09-16T22:56:39.830Z,14.50
2022-09-16T22:58:44.148Z,14.50
2022-09-16T23:00:47.283Z,14.50
2022-09-16T23:02:49.974Z,14.60
2022-09-16T23:04:54.191Z,14.50
2022-09-16T23:06:56.999Z,14.50
2022-09-16T23:08:59.993Z,14.50
2022-09-16T23:11:04.178Z,14.60
2022-09-16T23:13:06.900Z,14.50
2022-09-16T23:15:11.434Z,14.50
2022-09-16T23:17:14.302Z,14.40
2022-09-16T23:19:17.475Z,14.50
2022-09-16T23:21:23.251Z,14.50
2022-09-16T23:23:29.851Z,14.60
2022-09-16T23:25:32.651Z,14.50
2022-09-16T23:27:35.920Z,14.40
2022-09-16T23:29:38.647Z,14.40
2022-09-16T23:31:43.641Z,14.50
2022-09-16T23:33:46.794Z,14.50
2022-09-16T23:35:51.540Z,14.50
2022-09-16T23:37:57.562Z,14.40
2022-09-16T23:40:00.342Z,14.50
2022-09-16T23:42:03.063Z,14.60
2022-09-16T23:44:05.905Z,14.70
2022-09-16T23:46:10.167Z,14.70
2022-09-16T23:48:13.285Z,14.70
2022-09-16T23:50:16.357Z,14.60
2022-09-16T23:52:19.069Z,14.60
2022-09-16T23:54:23.325Z,14.70
2022-09-16T23:56:26.788Z,14.70
2022-09-16T23:58:29.471Z,14.60
